Time;durP1;ratioP1;P1;durP2;ratioP2;P2;SDS_P1;SDS_P2;PMS_P1;PMS_P2;Temp;Humidity;BMP_temperature;BMP_pressure;BME280_temperature;BME280_humidity;BME280_pressure;Samples;Min_cycle;Max_cycle;Signal;HPM_P1;HPM_P2
2023/07/31 00:01:36;;;;;;;4.73;1.80;;;;;;;;;;6225398;23;20418;-79
2023/07/31 00:04:03;;;;;;;7.13;1.87;;;;;;;;;;6224649;23;20916;-79
2023/07/31 00:06:31;;;;;;;7.50;1.40;;;;;;;;;;6222753;23;20450;-79
2023/07/31 00:08:58;;;;;;;3.80;2.00;;;;;;;;;;6227361;23;20402;-79
2023/07/31 00:11:27;;;;;;;4.00;1.60;;;;;;;;;;6225700;23;20421;-79
2023/07/31 00:13:57;;;;;;;2.73;1.40;;;;;;;;;;6223402;23;20442;-79
2023/07/31 00:16:25;;;;;;;2.50;1.40;;;;;;;;;;6224606;23;20476;-79
2023/07/31 00:18:52;;;;;;;5.53;1.73;;;;;;;;;;6224703;23;20733;-78
2023/07/31 00:21:20;;;;;;;5.20;2.03;;;;;;;;;;6223841;23;20500;-78
2023/07/31 00:23:47;;;;;;;4.40;1.67;;;;;;;;;;6224053;23;20407;-79
2023/07/31 00:26:15;;;;;;;5.40;1.93;;;;;;;;;;6227693;23;20410;-79
2023/07/31 00:28:44;;;;;;;5.40;2.13;;;;;;;;;;6224438;23;20426;-79
2023/07/31 00:31:12;;;;;;;4.37;1.43;;;;;;;;;;6224779;23;20815;-78
2023/07/31 00:33:39;;;;;;;6.13;2.10;;;;;;;;;;6225607;23;20426;-79
2023/07/31 00:36:07;;;;;;;5.57;1.50;;;;;;;;;;6225359;23;20399;-76
2023/07/31 00:38:34;;;;;;;5.00;2.03;;;;;;;;;;6225625;23;20520;-79
2023/07/31 00:41:02;;;;;;;4.93;1.87;;;;;;;;;;6229098;23;20456;-79
2023/07/31 00:43:29;;;;;;;8.53;2.13;;;;;;;;;;6225633;23;20484;-78
2023/07/31 00:45:58;;;;;;;4.13;1.67;;;;;;;;;;6226759;23;20374;-79
2023/07/31 00:48:26;;;;;;;5.53;1.63;;;;;;;;;;6225067;23;20811;-79
2023/07/31 00:50:53;;;;;;;5.37;1.53;;;;;;;;;;6225090;23;20424;-79
2023/07/31 00:53:21;;;;;;;3.93;1.20;;;;;;;;;;6224629;23;20410;-79
2023/07/31 00:55:48;;;;;;;4.67;2.00;;;;;;;;;;6221979;23;20671;-79
2023/07/31 00:58:15;;;;;;;4.70;1.70;;;;;;;;;;6222813;23;20449;-79
2023/07/31 01:00:43;;;;;;;11.13;1.90;;;;;;;;;;6221488;23;20474;-79
2023/07/31 01:03:12;;;;;;;4.60;2.70;;;;;;;;;;6222418;23;20430;-79
2023/07/31 01:05:44;;;;;;;4.60;1.80;;;;;;;;;;6221385;23;20414;-78
2023/07/31 01:08:16;;;;;;;7.30;2.10;;;;;;;;;;6222636;23;20500;-79
2023/07/31 01:10:50;;;;;;;9.73;1.90;;;;;;;;;;6221938;23;20417;-78
2023/07/31 01:13:19;;;;;;;10.13;2.50;;;;;;;;;;6224495;23;20410;-79
2023/07/31 01:15:47;;;;;;;4.27;1.83;;;;;;;;;;6223641;23;20444;-79
2023/07/31 01:18:15;;;;;;;4.73;2.10;;;;;;;;;;6222348;23;20477;-79
2023/07/31 01:20:50;;;;;;;5.17;2.07;;;;;;;;;;6226340;23;20528;-79
2023/07/31 01:23:29;;;;;;;3.50;1.47;;;;;;;;;;6224326;23;20414;-80
2023/07/31 01:26:01;;;;;;;5.70;2.50;;;;;;;;;;6224808;23;20414;-79
2023/07/31 01:28:33;;;;;;;6.87;2.30;;;;;;;;;;6224755;23;20422;-79
2023/07/31 01:31:01;;;;;;;6.00;2.47;;;;;;;;;;6225912;23;20434;-79
2023/07/31 01:33:29;;;;;;;5.03;1.87;;;;;;;;;;6226279;23;20415;-79
2023/07/31 01:35:57;;;;;;;4.20;2.13;;;;;;;;;;6229273;23;20852;-78
2023/07/31 01:38:25;;;;;;;4.00;3.10;;;;;;;;;;6227855;23;20449;-79
2023/07/31 01:40:53;;;;;;;4.40;1.90;;;;;;;;;;6227320;23;20414;-79
2023/07/31 01:43:23;;;;;;;6.37;2.30;;;;;;;;;;6223761;23;20410;-78
2023/07/31 01:45:50;;;;;;;3.73;1.57;;;;;;;;;;6224250;23;20414;-80
2023/07/31 01:48:18;;;;;;;4.43;1.77;;;;;;;;;;6221448;23;20453;-78
2023/07/31 01:50:45;;;;;;;4.60;1.90;;;;;;;;;;6223532;23;20426;-78
2023/07/31 01:53:13;;;;;;;9.27;2.00;;;;;;;;;;6225021;23;20406;-79
2023/07/31 01:55:41;;;;;;;5.83;2.33;;;;;;;;;;6222036;23;20446;-79
2023/07/31 01:58:08;;;;;;;5.73;2.10;;;;;;;;;;6221878;23;20694;-78
2023/07/31 02:00:37;;;;;;;6.00;1.90;;;;;;;;;;6220056;23;20394;-78
2023/07/31 02:03:05;;;;;;;4.30;1.70;;;;;;;;;;6226243;23;20390;-78
2023/07/31 02:05:32;;;;;;;4.27;2.13;;;;;;;;;;6226938;23;20411;-80
2023/07/31 02:08:00;;;;;;;5.90;2.53;;;;;;;;;;6226482;23;20406;-78
2023/07/31 02:10:27;;;;;;;4.80;1.80;;;;;;;;;;6226362;23;20405;-79
2023/07/31 02:12:55;;;;;;;4.43;1.60;;;;;;;;;;6223734;23;20379;-79
2023/07/31 02:15:22;;;;;;;4.27;2.20;;;;;;;;;;6224876;23;20426;-80
2023/07/31 02:17:51;;;;;;;4.10;2.30;;;;;;;;;;6222871;23;20394;-78
2023/07/31 02:20:19;;;;;;;4.07;1.77;;;;;;;;;;6225672;23;20413;-80
2023/07/31 02:22:46;;;;;;;7.30;2.23;;;;;;;;;;6225331;23;20401;-79
2023/07/31 02:25:14;;;;;;;6.60;2.33;;;;;;;;;;6224977;23;20698;-78
2023/07/31 02:27:41;;;;;;;8.90;2.57;;;;;;;;;;6222006;23;20422;-79
2023/07/31 02:30:09;;;;;;;5.10;2.37;;;;;;;;;;6224629;23;20414;-79
2023/07/31 02:32:37;;;;;;;8.93;2.50;;;;;;;;;;6224455;23;20414;-80
2023/07/31 02:35:06;;;;;;;4.23;1.97;;;;;;;;;;6221441;23;20520;-78
2023/07/31 02:37:33;;;;;;;7.23;2.70;;;;;;;;;;6223389;23;20426;-80
2023/07/31 02:40:10;;;;;;;4.80;2.53;;;;;;;;;;6224781;23;20761;-78
2023/07/31 02:42:38;;;;;;;4.03;2.80;;;;;;;;;;6221224;23;20477;-78
2023/07/31 02:45:09;;;;;;;5.70;2.40;;;;;;;;;;6222993;23;20414;-80
2023/07/31 02:47:36;;;;;;;4.50;3.10;;;;;;;;;;6226590;23;20663;-80
2023/07/31 02:50:12;;;;;;;6.43;3.40;;;;;;;;;;6222543;23;20416;-79
2023/07/31 02:52:40;;;;;;;8.00;2.90;;;;;;;;;;6225563;23;20660;-79
2023/07/31 02:55:07;;;;;;;6.00;3.70;;;;;;;;;;6224993;23;20433;-78
2023/07/31 02:57:35;;;;;;;6.10;5.23;;;;;;;;;;6222348;23;20421;-79
2023/07/31 03:00:09;;;;;;;7.30;3.60;;;;;;;;;;6224327;23;20442;-79
2023/07/31 03:02:36;;;;;;;7.07;3.70;;;;;;;;;;6229287;23;20498;-79
2023/07/31 03:05:04;;;;;;;9.33;3.93;;;;;;;;;;6223311;23;20422;-79
2023/07/31 03:07:33;;;;;;;5.17;3.70;;;;;;;;;;6220324;23;20952;-80
2023/07/31 03:10:00;;;;;;;6.57;4.90;;;;;;;;;;6223319;23;20414;-80
2023/07/31 03:12:28;;;;;;;10.27;4.13;;;;;;;;;;6216061;23;20878;-79
2023/07/31 03:14:55;;;;;;;6.63;4.40;;;;;;;;;;6194302;23;20642;-78
2023/07/31 03:17:23;;;;;;;5.53;4.10;;;;;;;;;;6220452;23;20481;-79
2023/07/31 03:19:50;;;;;;;9.13;4.10;;;;;;;;;;6220850;23;20467;-78
2023/07/31 03:22:18;;;;;;;5.60;4.70;;;;;;;;;;6222395;23;20461;-79
2023/07/31 03:24:47;;;;;;;7.37;4.83;;;;;;;;;;6224086;23;20413;-78
2023/07/31 03:27:14;;;;;;;5.50;3.77;;;;;;;;;;6225213;23;20418;-79
2023/07/31 03:29:41;;;;;;;6.27;3.87;;;;;;;;;;6228195;23;20445;-78
2023/07/31 03:32:09;;;;;;;7.80;4.23;;;;;;;;;;6225189;23;20414;-79
2023/07/31 03:34:37;;;;;;;7.60;3.60;;;;;;;;;;6226206;23;20481;-79
2023/07/31 03:37:05;;;;;;;6.93;4.00;;;;;;;;;;6224132;23;20445;-78
2023/07/31 03:39:33;;;;;;;5.40;4.00;;;;;;;;;;6222776;23;20414;-78
2023/07/31 03:42:02;;;;;;;6.20;3.57;;;;;;;;;;6221820;23;20457;-78
2023/07/31 03:44:29;;;;;;;8.63;6.93;;;;;;;;;;6220891;23;20415;-79
2023/07/31 03:46:57;;;;;;;4.20;3.47;;;;;;;;;;6221160;23;20425;-78
2023/07/31 03:49:24;;;;;;;8.50;4.00;;;;;;;;;;6218742;23;20437;-78
2023/07/31 03:51:52;;;;;;;4.33;3.90;;;;;;;;;;6226617;23;20409;-79
2023/07/31 03:54:19;;;;;;;4.53;3.70;;;;;;;;;;6220568;23;20445;-79
2023/07/31 03:56:47;;;;;;;5.83;4.10;;;;;;;;;;6227958;23;20413;-79
2023/07/31 03:59:18;;;;;;;5.00;3.27;;;;;;;;;;6220990;23;20438;-77
2023/07/31 04:01:45;;;;;;;4.73;3.40;;;;;;;;;;6224713;23;20391;-77
2023/07/31 04:04:13;;;;;;;6.40;3.33;;;;;;;;;;6222187;23;20391;-77
2023/07/31 04:06:40;;;;;;;6.70;4.00;;;;;;;;;;6220172;23;20465;-80
2023/07/31 04:09:08;;;;;;;5.37;3.60;;;;;;;;;;6222986;23;20516;-80
2023/07/31 04:11:35;;;;;;;4.73;4.23;;;;;;;;;;6223860;23;20452;-79
2023/07/31 04:14:03;;;;;;;6.73;4.40;;;;;;;;;;6224530;23;20828;-78
2023/07/31 04:16:31;;;;;;;5.70;3.90;;;;;;;;;;6222819;23;20441;-78
2023/07/31 04:18:59;;;;;;;4.97;3.33;;;;;;;;;;6228341;23;20414;-79
2023/07/31 04:21:26;;;;;;;5.20;3.87;;;;;;;;;;6225712;23;20410;-79
2023/07/31 04:23:55;;;;;;;6.50;4.37;;;;;;;;;;6225556;23;20452;-78
2023/07/31 04:26:23;;;;;;;5.90;4.40;;;;;;;;;;6223636;23;20414;-80
2023/07/31 04:28:50;;;;;;;5.27;3.90;;;;;;;;;;6224517;23;20403;-77
2023/07/31 04:31:18;;;;;;;5.00;4.17;;;;;;;;;;6221638;23;20391;-78
2023/07/31 04:33:47;;;;;;;6.33;4.47;;;;;;;;;;6225393;23;20511;-77
2023/07/31 04:36:15;;;;;;;5.40;3.43;;;;;;;;;;6221701;23;20446;-79
2023/07/31 04:38:42;;;;;;;7.40;3.87;;;;;;;;;;6226951;23;20710;-79
2023/07/31 04:41:11;;;;;;;7.73;4.50;;;;;;;;;;6220716;23;20410;-79
2023/07/31 04:43:39;;;;;;;7.63;5.00;;;;;;;;;;6226009;23;20387;-79
2023/07/31 04:46:07;;;;;;;7.30;3.93;;;;;;;;;;6223154;23;20839;-78
2023/07/31 04:48:35;;;;;;;6.83;4.13;;;;;;;;;;6224328;23;20422;-79
2023/07/31 04:51:03;;;;;;;5.60;4.67;;;;;;;;;;6227562;23;20424;-79
2023/07/31 04:53:31;;;;;;;7.80;3.60;;;;;;;;;;6224174;23;20522;-79
2023/07/31 04:55:59;;;;;;;4.70;4.10;;;;;;;;;;6223433;23;20448;-79
2023/07/31 04:58:26;;;;;;;6.80;4.53;;;;;;;;;;6226865;23;20692;-78
2023/07/31 05:00:54;;;;;;;4.87;3.97;;;;;;;;;;6227973;23;20411;-77
2023/07/31 05:03:22;;;;;;;8.83;4.40;;;;;;;;;;6226154;23;20410;-78
2023/07/31 05:05:49;;;;;;;7.70;4.50;;;;;;;;;;6222498;23;20899;-78
2023/07/31 05:08:18;;;;;;;4.83;3.87;;;;;;;;;;6225423;23;20409;-79
2023/07/31 05:10:46;;;;;;;8.03;4.57;;;;;;;;;;6224643;23;20375;-78
2023/07/31 05:13:13;;;;;;;6.50;5.23;;;;;;;;;;6222664;23;20683;-78
2023/07/31 05:15:40;;;;;;;5.27;3.80;;;;;;;;;;6222837;23;20468;-79
2023/07/31 05:18:08;;;;;;;6.10;4.07;;;;;;;;;;6224507;23;20410;-77
2023/07/31 05:20:35;;;;;;;7.33;3.77;;;;;;;;;;6223741;23;20456;-79
2023/07/31 05:23:03;;;;;;;6.00;3.93;;;;;;;;;;6222492;23;20425;-79
2023/07/31 05:25:32;;;;;;;5.60;3.80;;;;;;;;;;6221430;23;20458;-78
2023/07/31 05:27:59;;;;;;;7.03;4.27;;;;;;;;;;6224701;23;20616;-78
2023/07/31 05:30:27;;;;;;;5.07;3.47;;;;;;;;;;6224324;23;20416;-79
2023/07/31 05:32:54;;;;;;;4.17;3.47;;;;;;;;;;6225351;23;20402;-79
2023/07/31 05:35:22;;;;;;;4.47;3.20;;;;;;;;;;6222501;23;20707;-79
2023/07/31 05:37:50;;;;;;;7.37;4.13;;;;;;;;;;6224992;23;20395;-78
2023/07/31 05:40:17;;;;;;;6.90;3.80;;;;;;;;;;6227294;23;20383;-78
2023/07/31 05:42:46;;;;;;;3.90;3.33;;;;;;;;;;6220369;23;20414;-79
2023/07/31 05:45:15;;;;;;;5.00;3.60;;;;;;;;;;6221961;23;20407;-78
2023/07/31 05:47:43;;;;;;;4.53;3.30;;;;;;;;;;6222419;23;20787;-79
2023/07/31 05:50:11;;;;;;;4.50;3.13;;;;;;;;;;6219651;23;20418;-79
2023/07/31 05:52:38;;;;;;;5.00;3.47;;;;;;;;;;6223300;23;20484;-79
2023/07/31 05:55:08;;;;;;;6.47;3.10;;;;;;;;;;6222174;23;20793;-80
2023/07/31 05:57:36;;;;;;;4.33;3.07;;;;;;;;;;6227729;23;20516;-79
2023/07/31 06:00:10;;;;;;;4.47;3.43;;;;;;;;;;6222174;23;20886;-79
2023/07/31 06:02:37;;;;;;;5.00;2.90;;;;;;;;;;6223975;23;20423;-79
2023/07/31 06:05:06;;;;;;;3.83;3.17;;;;;;;;;;6226871;23;20410;-79
2023/07/31 06:07:33;;;;;;;4.40;2.60;;;;;;;;;;6222632;23;20661;-80
2023/07/31 06:10:05;;;;;;;4.50;2.67;;;;;;;;;;6221203;23;20831;-79
2023/07/31 06:12:33;;;;;;;4.13;2.70;;;;;;;;;;6220373;23;20394;-77
2023/07/31 06:15:01;;;;;;;6.43;2.60;;;;;;;;;;6219729;23;20410;-78
2023/07/31 06:17:30;;;;;;;3.10;2.17;;;;;;;;;;6219560;23;20418;-77
2023/07/31 06:19:58;;;;;;;3.40;2.23;;;;;;;;;;6224295;23;20421;-78
2023/07/31 06:22:26;;;;;;;3.10;2.30;;;;;;;;;;6220349;23;20402;-78
2023/07/31 06:24:53;;;;;;;4.40;2.50;;;;;;;;;;6217014;23;20521;-77
2023/07/31 06:27:21;;;;;;;3.03;2.00;;;;;;;;;;6222653;23;20410;-77
2023/07/31 06:29:48;;;;;;;4.53;2.10;;;;;;;;;;6219511;23;20446;-79
2023/07/31 06:32:16;;;;;;;3.20;1.90;;;;;;;;;;6218877;23;20413;-79
2023/07/31 06:34:50;;;;;;;2.93;1.70;;;;;;;;;;6223187;23;20405;-79
2023/07/31 06:37:17;;;;;;;3.27;1.80;;;;;;;;;;6218015;23;20501;-78
2023/07/31 06:39:45;;;;;;;4.87;2.00;;;;;;;;;;6217833;23;20437;-77
2023/07/31 06:42:12;;;;;;;4.33;2.37;;;;;;;;;;6220810;23;20409;-78
2023/07/31 06:44:46;;;;;;;2.80;1.50;;;;;;;;;;6221766;23;20414;-79
2023/07/31 06:47:13;;;;;;;2.90;1.60;;;;;;;;;;6220230;23;20989;-78
2023/07/31 06:49:41;;;;;;;6.30;1.50;;;;;;;;;;6214363;23;20859;-79
2023/07/31 06:52:11;;;;;;;5.37;3.20;;;;;;;;;;6214510;23;20534;-79
2023/07/31 06:54:39;;;;;;;3.30;1.40;;;;;;;;;;6215523;23;20418;-78
2023/07/31 06:57:07;;;;;;;2.90;1.47;;;;;;;;;;6215916;23;20457;-78
2023/07/31 06:59:41;;;;;;;3.70;1.50;;;;;;;;;;6222356;23;20437;-77
2023/07/31 07:02:08;;;;;;;3.57;2.00;;;;;;;;;;6216986;23;20414;-78
2023/07/31 07:04:42;;;;;;;2.40;1.10;;;;;;;;;;6216490;23;20395;-79
2023/07/31 07:07:11;;;;;;;2.57;1.23;;;;;;;;;;6219310;23;20386;-78
2023/07/31 07:09:38;;;;;;;2.60;1.20;;;;;;;;;;6220241;23;20425;-77
2023/07/31 07:12:06;;;;;;;3.27;1.77;;;;;;;;;;6223365;23;20425;-78
2023/07/31 07:14:35;;;;;;;2.30;1.10;;;;;;;;;;6218843;23;20470;-78
2023/07/31 07:17:02;;;;;;;2.50;0.87;;;;;;;;;;6218237;23;20887;-79
2023/07/31 07:19:33;;;;;;;2.30;0.93;;;;;;;;;;6221279;23;20422;-80
2023/07/31 07:22:01;;;;;;;2.53;1.10;;;;;;;;;;6224675;23;20418;-79
2023/07/31 07:24:31;;;;;;;2.70;1.60;;;;;;;;;;6226692;23;20464;-78
2023/07/31 07:26:58;;;;;;;2.67;1.10;;;;;;;;;;6220994;23;20411;-77
2023/07/31 07:29:26;;;;;;;2.60;1.40;;;;;;;;;;6219571;23;20448;-77
2023/07/31 07:31:54;;;;;;;4.93;1.30;;;;;;;;;;6223740;23;20438;-79
2023/07/31 07:34:25;;;;;;;3.10;1.10;;;;;;;;;;6223225;23;20386;-77
2023/07/31 07:36:54;;;;;;;2.30;1.07;;;;;;;;;;6221997;23;20456;-78
2023/07/31 07:39:22;;;;;;;2.50;1.30;;;;;;;;;;6227781;23;20441;-79
2023/07/31 07:41:53;;;;;;;3.40;1.20;;;;;;;;;;6220996;23;20513;-79
2023/07/31 07:44:20;;;;;;;2.60;1.30;;;;;;;;;;6218002;23;20418;-80
2023/07/31 07:46:48;;;;;;;2.83;1.00;;;;;;;;;;6216671;23;20806;-79
2023/07/31 07:49:15;;;;;;;3.87;1.17;;;;;;;;;;6218849;23;20397;-78
2023/07/31 07:51:43;;;;;;;6.03;0.90;;;;;;;;;;6220317;23;20421;-78
2023/07/31 07:54:11;;;;;;;3.53;1.63;;;;;;;;;;6217776;23;20414;-80
2023/07/31 07:56:40;;;;;;;2.50;0.97;;;;;;;;;;6217011;23;20457;-79
2023/07/31 07:59:16;;;;;;;3.00;1.50;;;;;;;;;;6217211;23;20438;-78
2023/07/31 08:01:47;;;;;;;2.40;1.20;;;;;;;;;;6218142;23;20481;-79
2023/07/31 08:04:28;;;;;;;2.60;0.87;;;;;;;;;;6217767;23;20414;-78
2023/07/31 08:06:55;;;;;;;4.73;0.90;;;;;;;;;;6221786;23;20469;-79
2023/07/31 08:09:23;;;;;;;3.03;0.90;;;;;;;;;;6220293;23;20410;-78
2023/07/31 08:11:51;;;;;;;1.93;0.80;;;;;;;;;;6219848;23;20410;-78
2023/07/31 08:14:21;;;;;;;2.67;1.03;;;;;;;;;;6223398;23;20698;-79
2023/07/31 08:16:48;;;;;;;2.60;1.10;;;;;;;;;;6222040;23;20941;-78
2023/07/31 08:19:17;;;;;;;3.90;1.67;;;;;;;;;;6226364;23;20453;-78
2023/07/31 08:21:46;;;;;;;3.53;0.97;;;;;;;;;;6227615;23;20433;-79
2023/07/31 08:24:15;;;;;;;2.60;1.20;;;;;;;;;;6228273;23;20414;-78
2023/07/31 08:26:43;;;;;;;2.50;1.60;;;;;;;;;;6224860;23;20412;-79
2023/07/31 08:29:12;;;;;;;5.53;2.80;;;;;;;;;;6225701;23;20525;-79
2023/07/31 08:31:41;;;;;;;11.43;7.47;;;;;;;;;;6224599;23;20371;-80
2023/07/31 08:34:09;;;;;;;3.93;1.67;;;;;;;;;;6220144;23;20410;-78
2023/07/31 08:36:38;;;;;;;2.20;1.10;;;;;;;;;;6219898;23;20507;-79
2023/07/31 08:39:06;;;;;;;1.90;0.70;;;;;;;;;;6220387;23;20477;-80
2023/07/31 08:41:39;;;;;;;2.10;0.80;;;;;;;;;;6218851;23;20422;-79
2023/07/31 08:44:06;;;;;;;2.20;0.87;;;;;;;;;;6225026;23;20402;-78
2023/07/31 08:46:35;;;;;;;3.47;1.00;;;;;;;;;;6219375;23;20445;-78
2023/07/31 08:49:06;;;;;;;2.93;1.17;;;;;;;;;;6220182;23;20417;-77
2023/07/31 08:51:38;;;;;;;2.40;1.03;;;;;;;;;;6222016;23;20512;-79
2023/07/31 08:54:12;;;;;;;2.40;1.30;;;;;;;;;;6220736;23;20835;-80
2023/07/31 08:56:43;;;;;;;4.37;2.33;;;;;;;;;;6218673;23;20456;-78
2023/07/31 08:59:17;;;;;;;3.40;1.70;;;;;;;;;;6221202;23;20449;-79
2023/07/31 09:01:46;;;;;;;2.50;1.30;;;;;;;;;;6223820;23;20812;-78
2023/07/31 09:04:16;;;;;;;3.00;1.57;;;;;;;;;;6226688;23;20379;-79
2023/07/31 09:06:44;;;;;;;4.30;2.80;;;;;;;;;;6222303;23;20484;-80
2023/07/31 09:09:11;;;;;;;1.90;0.90;;;;;;;;;;6222444;23;20410;-78
2023/07/31 09:11:39;;;;;;;4.47;1.10;;;;;;;;;;6224741;23;20437;-78
2023/07/31 09:14:08;;;;;;;2.93;1.43;;;;;;;;;;6217737;23;20433;-77
2023/07/31 09:16:36;;;;;;;2.70;1.10;;;;;;;;;;6223959;23;20430;-79
2023/07/31 09:19:05;;;;;;;3.60;2.03;;;;;;;;;;6224982;23;20512;-78
2023/07/31 09:21:34;;;;;;;2.57;0.60;;;;;;;;;;6226672;23;20900;-79
2023/07/31 09:24:02;;;;;;;3.50;1.30;;;;;;;;;;6218463;23;20444;-77
2023/07/31 09:26:33;;;;;;;3.57;1.60;;;;;;;;;;6218507;23;20398;-77
2023/07/31 09:29:04;;;;;;;2.20;0.90;;;;;;;;;;6220496;23;20414;-77
2023/07/31 09:31:35;;;;;;;2.40;1.13;;;;;;;;;;6223102;23;20434;-78
2023/07/31 09:34:05;;;;;;;2.93;0.90;;;;;;;;;;6225152;23;20410;-78
2023/07/31 09:36:41;;;;;;;3.70;1.40;;;;;;;;;;6221670;23;20728;-78
2023/07/31 09:39:15;;;;;;;3.47;1.40;;;;;;;;;;6227777;23;20508;-78
2023/07/31 09:41:44;;;;;;;7.07;2.53;;;;;;;;;;6225052;23;20476;-78
2023/07/31 09:44:11;;;;;;;4.13;2.03;;;;;;;;;;6224060;23;20411;-78
2023/07/31 09:46:39;;;;;;;3.50;2.10;;;;;;;;;;6223044;23;20398;-78
2023/07/31 09:49:09;;;;;;;4.70;2.30;;;;;;;;;;6220750;23;20390;-77
2023/07/31 09:51:39;;;;;;;5.10;2.60;;;;;;;;;;6223590;23;20464;-78
2023/07/31 09:54:12;;;;;;;4.40;2.83;;;;;;;;;;6225878;23;20418;-78
2023/07/31 09:56:45;;;;;;;6.97;3.40;;;;;;;;;;6226203;23;20446;-78
2023/07/31 09:59:17;;;;;;;9.50;4.10;;;;;;;;;;6225036;23;20473;-78
2023/07/31 10:01:46;;;;;;;8.93;3.67;;;;;;;;;;6226931;23;20421;-79
2023/07/31 10:04:25;;;;;;;10.10;6.40;;;;;;;;;;6225687;23;20387;-80
2023/07/31 10:06:55;;;;;;;8.03;3.93;;;;;;;;;;6227954;23;20410;-78
2023/07/31 10:09:29;;;;;;;10.40;5.00;;;;;;;;;;6225462;23;20816;-78
2023/07/31 10:12:06;;;;;;;7.60;4.13;;;;;;;;;;6228389;23;20426;-78
2023/07/31 10:14:35;;;;;;;11.90;5.90;;;;;;;;;;6225165;23;20409;-76
2023/07/31 10:17:03;;;;;;;9.03;4.90;;;;;;;;;;6224433;23;20481;-78
2023/07/31 10:19:33;;;;;;;6.77;4.50;;;;;;;;;;6226688;23;20738;-77
2023/07/31 10:22:04;;;;;;;8.00;4.33;;;;;;;;;;6225897;23;20502;-77
2023/07/31 10:24:41;;;;;;;9.70;4.13;;;;;;;;;;6228166;23;20417;-77
2023/07/31 10:27:13;;;;;;;7.40;4.97;;;;;;;;;;6228078;23;20481;-77
2023/07/31 10:29:43;;;;;;;10.43;4.90;;;;;;;;;;6226745;23;20456;-77
2023/07/31 10:32:14;;;;;;;8.43;4.60;;;;;;;;;;6224430;23;20422;-78
2023/07/31 10:34:41;;;;;;;10.60;3.67;;;;;;;;;;6227013;23;20418;-77
2023/07/31 10:37:24;;;;;;;7.70;3.77;;;;;;;;;;6222056;23;20502;-78
2023/07/31 10:40:10;;;;;;;8.30;4.77;;;;;;;;;;6222022;23;20480;-79
2023/07/31 10:42:38;;;;;;;8.80;4.97;;;;;;;;;;6222382;23;20422;-79
2023/07/31 10:45:12;;;;;;;8.10;4.20;;;;;;;;;;6221824;23;20430;-79
2023/07/31 10:47:44;;;;;;;10.07;4.73;;;;;;;;;;6221329;23;20491;-79
2023/07/31 10:50:20;;;;;;;6.37;3.53;;;;;;;;;;6220389;23;20410;-78
2023/07/31 10:53:01;;;;;;;10.50;4.07;;;;;;;;;;6217636;23;20401;-76
2023/07/31 10:55:33;;;;;;;9.90;3.37;;;;;;;;;;6220862;23;20387;-78
2023/07/31 10:58:11;;;;;;;6.13;4.27;;;;;;;;;;6220846;23;20454;-78
2023/07/31 11:00:39;;;;;;;5.90;3.93;;;;;;;;;;6188584;23;20411;-79
2023/07/31 11:03:08;;;;;;;18.50;5.30;;;;;;;;;;6188049;23;20833;-78
2023/07/31 11:05:46;;;;;;;8.20;3.40;;;;;;;;;;6190399;23;20631;-79
2023/07/31 11:08:17;;;;;;;11.77;5.03;;;;;;;;;;6188639;23;20415;-77
2023/07/31 11:10:44;;;;;;;10.00;4.83;;;;;;;;;;6191459;23;20457;-77
2023/07/31 11:13:12;;;;;;;8.30;4.27;;;;;;;;;;6188555;23;20389;-79
2023/07/31 11:15:40;;;;;;;11.80;4.43;;;;;;;;;;6188796;23;20407;-77
2023/07/31 11:18:10;;;;;;;7.07;4.10;;;;;;;;;;6184540;23;20447;-78
2023/07/31 11:20:38;;;;;;;6.70;4.27;;;;;;;;;;6187048;23;20483;-79
2023/07/31 11:23:08;;;;;;;8.07;4.53;;;;;;;;;;6186890;23;20416;-78
2023/07/31 11:25:37;;;;;;;8.40;3.70;;;;;;;;;;6187600;23;20478;-78
2023/07/31 11:28:05;;;;;;;10.57;4.27;;;;;;;;;;6186329;23;20388;-78
2023/07/31 11:30:33;;;;;;;7.53;4.20;;;;;;;;;;6186190;23;20419;-78
2023/07/31 11:33:01;;;;;;;5.60;3.20;;;;;;;;;;6187697;23;20467;-78
2023/07/31 11:35:36;;;;;;;8.00;4.03;;;;;;;;;;6186217;23;20461;-78
2023/07/31 11:38:05;;;;;;;4.10;2.33;;;;;;;;;;6187569;23;20477;-78
2023/07/31 11:40:37;;;;;;;8.10;2.67;;;;;;;;;;6190722;23;20415;-79
2023/07/31 11:43:17;;;;;;;3.77;2.37;;;;;;;;;;6194502;23;20567;-78
2023/07/31 11:45:48;;;;;;;4.27;2.60;;;;;;;;;;6196264;23;20521;-78
2023/07/31 11:48:21;;;;;;;6.60;2.80;;;;;;;;;;6191431;23;20869;-77
2023/07/31 11:50:51;;;;;;;4.97;2.93;;;;;;;;;;6192694;23;20410;-78
2023/07/31 11:53:22;;;;;;;7.03;3.70;;;;;;;;;;6190901;23;20509;-78
2023/07/31 11:55:50;;;;;;;5.17;2.30;;;;;;;;;;6193686;23;20410;-78
2023/07/31 11:58:22;;;;;;;10.87;3.17;;;;;;;;;;6189620;23;20428;-78
2023/07/31 12:00:50;;;;;;;8.13;2.63;;;;;;;;;;6215860;23;20432;-77
2023/07/31 12:03:22;;;;;;;3.63;1.93;;;;;;;;;;6215721;23;20418;-77
2023/07/31 12:05:51;;;;;;;3.40;2.17;;;;;;;;;;6217069;23;20414;-77
2023/07/31 12:08:18;;;;;;;4.73;1.90;;;;;;;;;;6219147;23;20481;-77
2023/07/31 12:10:49;;;;;;;3.90;2.10;;;;;;;;;;6219690;23;20729;-77
2023/07/31 12:13:24;;;;;;;3.60;1.70;;;;;;;;;;6219554;23;20399;-78
2023/07/31 12:15:57;;;;;;;3.90;2.00;;;;;;;;;;6226106;23;20418;-79
2023/07/31 12:18:25;;;;;;;3.10;1.73;;;;;;;;;;6224383;23;20512;-77
2023/07/31 12:21:00;;;;;;;3.17;1.70;;;;;;;;;;6224156;23;20410;-77
2023/07/31 12:23:31;;;;;;;3.23;1.77;;;;;;;;;;6221741;23;20495;-77
2023/07/31 12:26:02;;;;;;;3.23;1.90;;;;;;;;;;6225261;23;20422;-79
2023/07/31 12:28:32;;;;;;;4.83;2.00;;;;;;;;;;6224673;23;20389;-78
2023/07/31 12:31:03;;;;;;;4.40;2.07;;;;;;;;;;6223236;23;20418;-78
2023/07/31 12:33:35;;;;;;;3.40;1.90;;;;;;;;;;6217410;23;20839;-79
2023/07/31 12:36:03;;;;;;;3.40;1.70;;;;;;;;;;6215492;23;20847;-77
2023/07/31 12:38:31;;;;;;;3.50;1.80;;;;;;;;;;6216038;23;21101;-79
2023/07/31 12:41:01;;;;;;;2.57;1.50;;;;;;;;;;6215036;23;20981;-78
2023/07/31 12:46:33;;;;;;;5.73;1.83;;;;;;;;;;6224442;23;20436;-78
2023/07/31 12:49:01;;;;;;;3.20;2.00;;;;;;;;;;6218721;23;20426;-79
2023/07/31 12:51:29;;;;;;;2.87;1.30;;;;;;;;;;6221299;23;20425;-78
2023/07/31 12:54:00;;;;;;;4.80;1.97;;;;;;;;;;6223081;23;20445;-78
2023/07/31 12:56:54;;;;;;;4.83;2.40;;;;;;;;;;6224052;23;20426;-79
2023/07/31 12:59:23;;;;;;;3.00;1.60;;;;;;;;;;6220347;23;20446;-78
2023/07/31 13:01:52;;;;;;;3.40;1.90;;;;;;;;;;6222046;23;20418;-77
2023/07/31 13:04:21;;;;;;;4.27;1.90;;;;;;;;;;6216454;23;20921;-81
2023/07/31 13:06:58;;;;;;;6.83;4.47;;;;;;;;;;6214834;23;20454;-77
2023/07/31 13:09:26;;;;;;;4.43;2.17;;;;;;;;;;6217072;23;20432;-78
2023/07/31 13:11:56;;;;;;;3.47;1.80;;;;;;;;;;6220190;23;20414;-79
2023/07/31 13:14:24;;;;;;;2.87;1.80;;;;;;;;;;6221566;23;20418;-77
2023/07/31 13:16:55;;;;;;;4.80;2.13;;;;;;;;;;6217698;23;20417;-79
2023/07/31 13:19:24;;;;;;;4.03;1.97;;;;;;;;;;6219927;23;20507;-79
2023/07/31 13:21:54;;;;;;;5.00;2.93;;;;;;;;;;6214893;23;20891;-79
2023/07/31 13:24:22;;;;;;;4.10;2.30;;;;;;;;;;6216840;23;20379;-78
2023/07/31 13:26:50;;;;;;;5.60;2.60;;;;;;;;;;6219111;23;20414;-79
2023/07/31 13:29:18;;;;;;;3.77;2.70;;;;;;;;;;6221912;23;20410;-78
2023/07/31 13:31:45;;;;;;;12.70;11.23;;;;;;;;;;6219185;23;20414;-78
2023/07/31 13:34:14;;;;;;;3.80;2.53;;;;;;;;;;6219935;23;20395;-79
2023/07/31 13:36:42;;;;;;;2.90;1.50;;;;;;;;;;6219385;23;20391;-78
2023/07/31 13:39:10;;;;;;;3.53;1.30;;;;;;;;;;6220610;23;20437;-80
2023/07/31 13:41:37;;;;;;;3.43;2.27;;;;;;;;;;6221144;23;21074;-78
2023/07/31 13:44:05;;;;;;;3.53;2.60;;;;;;;;;;6219091;23;20422;-77
2023/07/31 13:46:33;;;;;;;5.60;3.30;;;;;;;;;;6216612;23;20438;-78
2023/07/31 13:49:01;;;;;;;2.50;1.57;;;;;;;;;;6220094;23;20414;-79
2023/07/31 13:51:35;;;;;;;2.73;1.57;;;;;;;;;;6225031;23;20457;-78
2023/07/31 13:54:08;;;;;;;9.77;4.93;;;;;;;;;;6219044;23;20489;-78
2023/07/31 13:56:36;;;;;;;3.73;2.33;;;;;;;;;;6220511;23;20424;-77
2023/07/31 13:59:07;;;;;;;3.83;2.13;;;;;;;;;;6219197;23;20446;-78
2023/07/31 14:01:35;;;;;;;3.57;1.70;;;;;;;;;;6219126;23;20766;-79
2023/07/31 14:04:09;;;;;;;3.37;1.67;;;;;;;;;;6216678;23;20425;-78
2023/07/31 14:06:39;;;;;;;2.47;1.30;;;;;;;;;;6219782;23;20406;-79
2023/07/31 14:09:08;;;;;;;3.00;1.47;;;;;;;;;;6218666;23;20441;-80
2023/07/31 14:11:35;;;;;;;2.90;1.43;;;;;;;;;;6219568;23;21076;-78
2023/07/31 14:14:04;;;;;;;2.40;1.30;;;;;;;;;;6220122;23;20418;-79
2023/07/31 14:16:32;;;;;;;2.20;1.10;;;;;;;;;;6219684;23;20414;-79
2023/07/31 14:19:00;;;;;;;3.00;1.60;;;;;;;;;;6215204;23;20988;-79
2023/07/31 14:21:28;;;;;;;3.70;2.00;;;;;;;;;;6219503;23;20391;-79
2023/07/31 14:23:59;;;;;;;4.13;1.50;;;;;;;;;;6219343;23;20410;-79
2023/07/31 14:26:32;;;;;;;3.80;1.70;;;;;;;;;;6220173;23;20426;-78
2023/07/31 14:29:01;;;;;;;2.83;1.80;;;;;;;;;;6218111;23;20410;-77
2023/07/31 14:31:29;;;;;;;2.70;1.40;;;;;;;;;;6218095;23;20438;-79
2023/07/31 14:33:57;;;;;;;3.00;1.80;;;;;;;;;;6222805;23;20390;-80
2023/07/31 14:36:24;;;;;;;3.50;2.10;;;;;;;;;;6221298;23;20401;-79
2023/07/31 14:38:53;;;;;;;3.30;2.30;;;;;;;;;;6221407;23;20438;-79
2023/07/31 14:41:31;;;;;;;3.40;2.47;;;;;;;;;;6219384;23;21118;-79
2023/07/31 14:44:04;;;;;;;3.67;2.50;;;;;;;;;;6214886;23;20520;-79
2023/07/31 14:46:32;;;;;;;2.77;1.93;;;;;;;;;;6220116;23;20474;-80
2023/07/31 14:49:03;;;;;;;3.50;2.10;;;;;;;;;;6219506;23;20418;-80
2023/07/31 14:51:41;;;;;;;3.80;2.50;;;;;;;;;;6221729;23;20395;-78
2023/07/31 14:54:12;;;;;;;3.60;2.20;;;;;;;;;;6225992;23;20426;-78
2023/07/31 14:56:43;;;;;;;5.00;2.70;;;;;;;;;;6223145;23;20398;-77
2023/07/31 14:59:11;;;;;;;4.40;2.60;;;;;;;;;;6219508;23;20453;-77